Time;durP1;ratioP1;P1;durP2;ratioP2;P2;SDS_P1;SDS_P2;PMS_P1;PMS_P2;Temp;Humidity;BMP_temperature;BMP_pressure;BME280_temperature;BME280_humidity;BME280_pressure;Samples;Min_cycle;Max_cycle;Signal;HPM_P1;HPM_P2
2022/07/18 00:02:07;;;;;;;4.93;3.30;;;16.20;1.00;;;;;;4990173;28;20450;-63
2022/07/18 00:04:34;;;;;;;4.78;3.50;;;;;;;;;;5008478;28;20699;-63
2022/07/18 00:07:01;;;;;;;8.82;3.50;;;16.20;1.50;;;;;;4997142;28;20205;-63
2022/07/18 00:09:28;;;;;;;6.35;3.53;;;16.10;8.40;;;;;;4997207;28;20726;-63
2022/07/18 00:11:56;;;;;;;3.53;3.05;;;16.20;8.00;;;;;;5006714;28;20221;-63
2022/07/18 00:14:23;;;;;;;4.43;3.45;;;;;;;;;;5022238;28;20400;-63
2022/07/18 00:16:50;;;;;;;5.53;3.33;;;16.10;3.70;;;;;;4998485;28;20496;-63
2022/07/18 00:19:18;;;;;;;4.10;3.40;;;16.10;6.70;;;;;;5008547;28;20201;-63
2022/07/18 00:21:44;;;;;;;5.53;3.50;;;16.00;3.90;;;;;;5017044;28;20197;-62
2022/07/18 00:24:12;;;;;;;3.92;3.30;;;15.80;1.00;;;;;;4966404;28;20637;-63
2022/07/18 00:26:39;;;;;;;5.05;3.72;;;16.00;1.00;;;;;;5010255;28;20492;-63
2022/07/18 00:29:07;;;;;;;5.97;3.10;;;16.00;1.00;;;;;;5000545;28;20405;-62
2022/07/18 00:31:34;;;;;;;8.60;3.78;;;15.90;1.00;;;;;;5015962;28;20225;-64
2022/07/18 00:34:01;;;;;;;4.68;3.50;;;15.90;1.00;;;;;;4990024;28;20209;-63
2022/07/18 00:36:29;;;;;;;5.55;2.92;;;15.90;1.00;;;;;;5012661;28;20853;-61
2022/07/18 00:38:57;;;;;;;7.07;3.50;;;15.90;1.00;;;;;;5005384;28;20205;-63
2022/07/18 00:41:25;;;;;;;5.18;2.90;;;16.30;1.00;;;;;;4978652;28;20777;-63
2022/07/18 00:43:53;;;;;;;3.78;3.03;;;15.90;1.00;;;;;;5014426;28;20208;-64
2022/07/18 00:46:23;;;;;;;7.32;3.38;;;15.80;1.00;;;;;;5016494;28;20726;-63
2022/07/18 00:48:51;;;;;;;8.07;3.28;;;15.50;1.00;;;;;;4992965;28;20326;-62
2022/07/18 00:51:18;;;;;;;4.18;3.10;;;15.80;1.00;;;;;;5005417;28;20231;-63
2022/07/18 00:53:45;;;;;;;7.13;3.47;;;15.80;1.00;;;;;;5012379;28;20432;-63
2022/07/18 00:56:12;;;;;;;5.88;3.30;;;15.80;1.00;;;;;;4993279;28;20217;-63
2022/07/18 00:58:39;;;;;;;4.20;2.97;;;16.20;1.00;;;;;;5000459;28;20193;-63
2022/07/18 01:03:55;;;;;;;4.95;3.47;;;15.80;1.00;;;;;;4997740;28;20197;-62
2022/07/18 01:06:22;;;;;;;4.50;2.75;;;15.70;1.00;;;;;;4991507;28;20902;-63
2022/07/18 01:08:49;;;;;;;5.75;3.72;;;16.00;1.00;;;;;;5013690;28;20243;-64
2022/07/18 01:11:16;;;;;;;5.85;3.17;;;15.80;1.00;;;;;;4989886;28;20713;-63
2022/07/18 01:13:43;;;;;;;6.45;2.95;;;15.70;1.00;;;;;;4996485;28;20217;-63
2022/07/18 01:16:10;;;;;;;4.30;3.25;;;15.70;1.00;;;;;;5015549;28;20212;-63
2022/07/18 01:18:37;;;;;;;4.05;3.03;;;15.60;1.00;;;;;;5026054;28;20220;-62
2022/07/18 01:21:05;;;;;;;5.47;3.78;;;15.60;1.00;;;;;;4991015;28;20427;-63
2022/07/18 01:23:32;;;;;;;7.63;3.42;;;15.60;1.00;;;;;;5019437;28;20198;-63
2022/07/18 01:25:59;;;;;;;5.55;3.13;;;15.60;1.00;;;;;;4991391;28;20197;-63
2022/07/18 01:28:26;;;;;;;3.72;2.92;;;15.60;1.00;;;;;;4986653;28;20205;-63
2022/07/18 01:30:53;;;;;;;5.30;3.25;;;15.50;1.00;;;;;;5022541;28;20210;-62
2022/07/18 01:33:19;;;;;;;7.13;3.15;;;15.20;1.00;;;;;;5004881;28;20723;-63
2022/07/18 01:35:46;;;;;;;5.47;3.70;;;15.50;1.00;;;;;;5005099;28;20212;-63
2022/07/18 01:38:17;;;;;;;4.50;3.13;;;15.50;1.00;;;;;;5014279;28;20202;-63
2022/07/18 01:40:45;;;;;;;3.83;2.92;;;15.50;1.00;;;;;;5006762;28;20210;-62
2022/07/18 01:43:12;;;;;;;4.85;3.28;;;15.40;1.00;;;;;;4979121;28;20354;-63
2022/07/18 01:45:39;;;;;;;6.75;3.33;;;15.20;1.00;;;;;;5006594;28;20227;-63
2022/07/18 01:48:06;;;;;;;4.50;3.40;;;15.40;1.00;;;;;;5006040;28;20445;-61
2022/07/18 01:50:33;;;;;;;4.38;3.40;;;15.40;1.00;;;;;;5011811;28;20202;-60
2022/07/18 01:53:00;;;;;;;5.28;3.33;;;15.30;1.00;;;;;;5026502;28;21554;-61
2022/07/18 01:55:28;;;;;;;5.35;3.17;;;15.30;1.00;;;;;;4994178;28;20201;-61
2022/07/18 01:57:55;;;;;;;4.30;3.05;;;15.30;1.00;;;;;;4992167;28;20210;-61
2022/07/18 02:00:21;;;;;;;5.15;3.25;;;15.30;1.00;;;;;;5007366;28;20739;-61
2022/07/18 02:02:48;;;;;;;5.85;3.75;;;15.60;1.00;;;;;;5019313;28;20680;-62
2022/07/18 02:05:15;;;;;;;8.02;3.55;;;15.40;1.00;;;;;;4997960;28;21648;-62
2022/07/18 02:07:43;;;;;;;5.28;3.50;;;15.30;1.00;;;;;;5024025;28;20901;-63
2022/07/18 02:10:11;;;;;;;4.70;3.53;;;15.30;1.00;;;;;;4990002;28;20625;-61
2022/07/18 02:12:41;;;;;;;6.05;3.20;;;15.30;1.00;;;;;;5007880;28;20229;-62
2022/07/18 02:15:09;;;;;;;5.32;3.50;;;15.30;1.00;;;;;;4991054;28;20691;-62
2022/07/18 02:17:36;;;;;;;4.25;3.08;;;15.30;1.00;;;;;;5001172;28;20208;-62
2022/07/18 02:20:04;;;;;;;4.63;3.38;;;15.20;1.00;;;;;;5019985;28;20193;-62
2022/07/18 02:22:31;;;;;;;4.05;3.20;;;15.20;1.00;;;;;;5008557;28;20209;-62
2022/07/18 02:24:58;;;;;;;6.38;3.22;;;15.20;1.00;;;;;;5024492;28;20212;-62
2022/07/18 02:27:25;;;;;;;4.35;3.30;;;15.20;1.00;;;;;;4990464;28;20206;-62
2022/07/18 02:29:53;;;;;;;4.53;3.25;;;15.10;1.00;;;;;;4994999;28;20210;-62
2022/07/18 02:32:22;;;;;;;4.97;3.70;;;15.30;1.00;;;;;;4999685;28;20230;-62
2022/07/18 02:34:48;;;;;;;4.07;3.10;;;15.20;1.00;;;;;;5001125;28;20285;-61
2022/07/18 02:37:15;;;;;;;4.65;3.30;;;15.20;1.00;;;;;;5006118;28;20221;-62
2022/07/18 02:39:42;;;;;;;6.97;3.58;;;15.20;1.00;;;;;;5005796;28;20209;-62
2022/07/18 02:42:09;;;;;;;5.75;4.05;;;15.30;1.00;;;;;;5008405;28;20232;-62
2022/07/18 02:44:36;;;;;;;5.40;3.38;;;15.10;1.00;;;;;;4978291;28;20767;-62
2022/07/18 02:47:05;;;;;;;4.85;2.95;;;15.10;1.00;;;;;;4999349;28;20665;-62
2022/07/18 02:49:32;;;;;;;5.57;3.67;;;15.00;1.00;;;;;;5004885;28;20220;-62
2022/07/18 02:52:00;;;;;;;6.93;3.63;;;15.00;1.00;;;;;;5004266;28;20229;-62
2022/07/18 02:54:29;;;;;;;6.70;3.72;;;15.00;1.00;;;;;;5018023;28;20212;-62
2022/07/18 02:56:56;;;;;;;8.57;3.78;;;14.80;6.10;;;;;;4989550;28;20747;-62
2022/07/18 02:59:22;;;;;;;5.80;4.15;;;15.00;2.00;;;;;;4983951;28;20221;-62
2022/07/18 03:01:49;;;;;;;7.82;3.33;;;15.00;1.50;;;;;;4991679;28;20210;-62
2022/07/18 03:04:18;;;;;;;5.47;3.17;;;;;;;;;;4997095;28;20232;-62
2022/07/18 03:06:46;;;;;;;4.53;3.33;;;15.00;9.50;;;;;;5006092;28;20213;-62
2022/07/18 03:09:13;;;;;;;8.35;4.00;;;15.00;2.90;;;;;;5020097;28;20581;-61
2022/07/18 03:11:40;;;;;;;5.72;4.10;;;15.00;1.00;;;;;;5012529;28;20255;-62
2022/07/18 03:14:07;;;;;;;5.35;3.70;;;15.00;1.00;;;;;;4980939;28;20213;-63
2022/07/18 03:16:34;;;;;;;6.40;3.47;;;15.10;1.00;;;;;;4999438;28;20209;-64
2022/07/18 03:19:01;;;;;;;5.50;3.50;;;15.00;1.00;;;;;;4991188;28;20217;-63
2022/07/18 03:21:29;;;;;;;4.22;3.13;;;14.90;1.00;;;;;;5004587;28;20213;-63
2022/07/18 03:23:56;;;;;;;5.75;3.30;;;14.90;5.20;;;;;;5018928;28;20688;-63
2022/07/18 03:26:23;;;;;;;3.83;2.80;;;14.90;6.00;;;;;;5000152;28;20198;-63
2022/07/18 03:28:50;;;;;;;6.90;3.55;;;14.90;8.70;;;;;;4985261;28;20205;-63
2022/07/18 03:31:17;;;;;;;4.40;3.15;;;14.90;8.40;;;;;;5006261;28;20232;-62
2022/07/18 03:33:44;;;;;;;4.75;3.53;;;14.90;9.10;;;;;;4996120;28;20209;-63
2022/07/18 03:36:10;;;;;;;4.65;3.00;;;14.90;9.40;;;;;;5007600;28;20736;-61
2022/07/18 03:38:42;;;;;;;4.68;3.13;;;14.90;11.00;;;;;;5005087;28;20706;-62
2022/07/18 03:41:10;;;;;;;4.63;2.92;;;14.70;16.00;;;;;;5013744;28;20301;-63
2022/07/18 03:43:38;;;;;;;5.00;3.20;;;15.00;14.30;;;;;;4997163;28;20235;-63
2022/07/18 03:46:05;;;;;;;3.78;2.97;;;14.90;17.20;;;;;;4967667;28;20616;-64
2022/07/18 03:48:32;;;;;;;4.65;2.80;;;14.80;22.60;;;;;;5004795;28;20704;-64
2022/07/18 03:50:59;;;;;;;5.45;3.42;;;15.00;22.00;;;;;;4992216;28;20209;-63
2022/07/18 03:53:26;;;;;;;4.80;3.30;;;15.20;26.00;;;;;;5014918;28;20240;-61
2022/07/18 03:55:54;;;;;;;4.20;3.10;;;14.90;21.50;;;;;;4998266;28;20218;-61
2022/07/18 03:58:21;;;;;;;6.20;2.90;;;15.10;17.30;;;;;;5016912;28;20208;-62
2022/07/18 04:00:48;;;;;;;4.47;2.95;;;14.90;11.80;;;;;;4967637;28;20216;-61
2022/07/18 04:03:15;;;;;;;5.22;2.92;;;15.30;11.60;;;;;;4988543;28;20234;-62
2022/07/18 04:05:42;;;;;;;5.50;3.50;;;15.20;8.00;;;;;;5011069;28;20259;-62
2022/07/18 04:08:09;;;;;;;4.72;3.00;;;15.20;11.60;;;;;;4999749;28;20233;-61
2022/07/18 04:10:39;;;;;;;4.10;3.08;;;15.20;18.50;;;;;;5008289;28;20210;-63
2022/07/18 04:13:09;;;;;;;4.47;2.95;;;15.30;23.90;;;;;;5008371;28;20221;-62
2022/07/18 04:15:37;;;;;;;3.67;2.78;;;15.50;28.40;;;;;;4983959;28;20424;-61
2022/07/18 04:18:04;;;;;;;4.25;2.88;;;15.30;25.90;;;;;;5019028;28;20200;-62
2022/07/18 04:20:32;;;;;;;4.57;3.22;;;15.20;31.60;;;;;;4993893;28;20213;-63
2022/07/18 04:23:00;;;;;;;7.65;3.00;;;15.40;29.10;;;;;;5009686;28;20206;-62
2022/07/18 04:25:29;;;;;;;3.78;2.83;;;15.40;28.70;;;;;;5005610;28;20205;-63
2022/07/18 04:27:56;;;;;;;3.00;2.47;;;16.00;34.00;;;;;;5007321;28;20202;-62
2022/07/18 04:30:27;;;;;;;5.50;2.58;;;15.50;30.00;;;;;;4991988;28;20231;-63
2022/07/18 04:32:54;;;;;;;6.28;3.10;;;15.50;27.90;;;;;;4991390;28;20302;-63
2022/07/18 04:35:21;;;;;;;4.30;3.00;;;15.50;24.70;;;;;;4982959;28;20776;-64
2022/07/18 04:37:48;;;;;;;4.93;2.78;;;15.50;22.80;;;;;;5004082;28;20251;-63
2022/07/18 04:40:16;;;;;;;5.13;3.00;;;14.80;6.00;;;;;;5001985;28;20232;-63
2022/07/18 04:42:43;;;;;;;5.20;3.38;;;15.50;4.40;;;;;;5016901;28;20263;-63
2022/07/18 04:45:11;;;;;;;5.22;2.97;;;15.50;1.00;;;;;;4996246;28;20790;-64
2022/07/18 04:47:40;;;;;;;4.28;2.92;;;;;;;;;;4974932;28;20229;-62
2022/07/18 04:50:07;;;;;;;8.70;3.17;;;15.50;1.00;;;;;;5005184;28;20221;-63
2022/07/18 04:52:38;;;;;;;4.65;2.63;;;15.80;1.00;;;;;;4986818;28;20236;-62
2022/07/18 04:55:07;;;;;;;5.75;3.22;;;15.80;1.00;;;;;;4996192;28;20290;-62
2022/07/18 04:57:34;;;;;;;6.90;2.63;;;15.90;1.00;;;;;;5000971;28;20233;-63
2022/07/18 05:00:01;;;;;;;7.80;3.55;;;16.10;1.00;;;;;;4981033;28;20225;-63
2022/07/18 05:02:27;;;;;;;3.80;2.92;;;16.10;1.00;;;;;;4983387;28;20225;-62
2022/07/18 05:04:56;;;;;;;11.30;2.38;;;16.20;1.00;;;;;;5001909;28;20228;-63
2022/07/18 05:07:22;;;;;;;5.65;2.67;;;16.20;1.00;;;;;;5007836;28;20211;-63
2022/07/18 05:09:49;;;;;;;4.85;2.38;;;16.30;1.00;;;;;;5009429;28;20239;-63
2022/07/18 05:12:18;;;;;;;4.15;2.70;;;16.50;1.00;;;;;;5022168;28;20224;-63
2022/07/18 05:14:45;;;;;;;4.72;2.30;;;17.70;1.00;;;;;;5014576;28;21090;-63
2022/07/18 05:17:11;;;;;;;4.70;2.22;;;15.60;1.00;;;;;;4980379;28;20833;-63
2022/07/18 05:19:38;;;;;;;4.85;2.63;;;16.60;1.00;;;;;;5003712;28;20316;-63
2022/07/18 05:22:06;;;;;;;5.40;2.40;;;20.00;1.00;;;;;;4998960;28;20204;-63
2022/07/18 05:24:33;;;;;;;3.30;2.58;;;16.80;1.00;;;;;;5004867;28;20201;-63
2022/07/18 05:27:00;;;;;;;3.80;2.22;;;16.80;1.00;;;;;;5001672;28;20691;-63
2022/07/18 05:29:27;;;;;;;6.30;2.28;;;16.80;1.00;;;;;;5004586;28;20209;-63
2022/07/18 05:31:54;;;;;;;3.00;2.30;;;16.90;1.00;;;;;;4993311;28;20213;-63
2022/07/18 05:34:22;;;;;;;3.50;2.50;;;17.00;1.00;;;;;;4985064;28;20239;-62
2022/07/18 05:36:48;;;;;;;2.53;2.15;;;16.90;1.00;;;;;;4990412;28;20684;-63
2022/07/18 05:39:16;;;;;;;4.38;2.47;;;17.10;1.00;;;;;;4991740;28;23048;-63
2022/07/18 05:41:43;;;;;;;3.13;2.30;;;17.00;1.00;;;;;;4984545;28;20213;-63
2022/07/18 05:44:10;;;;;;;4.05;2.38;;;17.10;1.00;;;;;;5020273;28;20201;-62
2022/07/18 05:46:37;;;;;;;3.08;2.00;;;17.00;1.00;;;;;;4987338;28;20731;-63
2022/07/18 05:49:04;;;;;;;4.03;2.20;;;17.20;1.00;;;;;;4974362;28;20685;-63
2022/07/18 05:51:31;;;;;;;2.85;2.08;;;17.40;1.00;;;;;;4986335;28;20211;-63
2022/07/18 05:53:57;;;;;;;3.47;2.25;;;17.40;1.00;;;;;;5009187;28;20259;-63
2022/07/18 05:56:25;;;;;;;4.68;1.85;;;17.30;1.00;;;;;;5009787;28;20197;-63
2022/07/18 05:58:52;;;;;;;2.78;1.98;;;17.30;1.00;;;;;;5007181;28;20217;-64
2022/07/18 06:01:22;;;;;;;2.13;1.85;;;15.70;1.00;;;;;;5006443;28;20197;-63
2022/07/18 06:03:48;;;;;;;4.88;2.30;;;17.50;1.00;;;;;;4978860;28;20705;-63
2022/07/18 06:06:16;;;;;;;3.58;2.63;;;17.40;1.00;;;;;;4995224;28;20696;-63
2022/07/18 06:08:43;;;;;;;2.75;2.15;;;17.40;1.00;;;;;;5021414;28;20233;-62
2022/07/18 06:11:10;;;;;;;4.13;2.05;;;17.40;1.00;;;;;;5005033;28;20233;-63
2022/07/18 06:13:41;;;;;;;2.50;1.88;;;17.90;1.00;;;;;;5002147;28;20976;-63
2022/07/18 06:16:09;;;;;;;2.95;1.73;;;17.40;1.00;;;;;;5017098;28;20304;-63
2022/07/18 06:18:36;;;;;;;2.20;1.77;;;17.80;1.00;;;;;;4991397;28;20205;-63
2022/07/18 06:21:03;;;;;;;2.67;2.03;;;17.70;1.00;;;;;;4983182;28;20216;-63
2022/07/18 06:23:30;;;;;;;3.28;2.20;;;16.80;1.00;;;;;;5018616;28;20217;-62
2022/07/18 06:25:57;;;;;;;2.70;1.90;;;;;;;;;;4982910;28;20563;-62
2022/07/18 06:28:25;;;;;;;2.75;1.77;;;17.50;1.00;;;;;;5025261;28;20201;-63
2022/07/18 06:30:53;;;;;;;3.50;1.70;;;;;;;;;;5005943;28;20233;-63
2022/07/18 06:33:23;;;;;;;3.28;2.28;;;17.60;1.00;;;;;;5001827;28;20708;-63
2022/07/18 06:35:50;;;;;;;2.65;2.05;;;17.70;1.00;;;;;;4963471;28;20232;-63
2022/07/18 06:38:17;;;;;;;2.10;1.73;;;17.60;1.00;;;;;;5009560;28;20208;-63
2022/07/18 06:40:47;;;;;;;3.10;1.98;;;17.70;1.00;;;;;;4996442;28;20209;-63
2022/07/18 06:43:19;;;;;;;2.45;1.77;;;17.70;1.00;;;;;;5004900;28;20236;-63
2022/07/18 06:45:46;;;;;;;7.05;1.88;;;;;;;;;;5009370;28;20236;-63
2022/07/18 06:48:14;;;;;;;3.05;1.80;;;17.80;1.00;;;;;;4995236;28;20220;-63
2022/07/18 06:50:41;;;;;;;3.13;1.70;;;17.90;1.00;;;;;;4998090;28;20210;-63
2022/07/18 06:53:08;;;;;;;4.05;1.52;;;15.10;1.00;;;;;;5001016;28;20236;-63
2022/07/18 06:55:35;;;;;;;5.95;2.30;;;17.80;1.00;;;;;;5012201;28;20338;-64
2022/07/18 06:58:05;;;;;;;5.00;2.10;;;18.10;1.00;;;;;;5017207;28;20252;-63
2022/07/18 07:00:31;;;;;;;2.50;1.90;;;18.20;1.00;;;;;;4996478;28;21559;-63
2022/07/18 07:02:58;;;;;;;2.85;1.58;;;18.40;99.90;;;;;;5024879;28;20977;-62
2022/07/18 07:05:27;;;;;;;2.25;1.67;;;18.00;99.90;;;;;;4998991;28;20708;-63
2022/07/18 07:07:54;;;;;;;5.40;2.05;;;18.30;99.90;;;;;;4998223;28;20214;-63
2022/07/18 07:10:21;;;;;;;2.25;1.63;;;18.30;99.90;;;;;;5019207;28;20210;-63
2022/07/18 07:12:50;;;;;;;5.22;1.50;;;18.40;99.90;;;;;;5012438;28;20561;-63
2022/07/18 07:15:20;;;;;;;2.25;1.67;;;18.30;40.70;;;;;;5000595;28;20206;-63
2022/07/18 07:17:50;;;;;;;7.25;2.10;;;18.60;1.00;;;;;;5012833;28;20233;-64
2022/07/18 07:20:20;;;;;;;5.53;3.47;;;19.50;1.00;;;;;;4996956;28;21118;-63
2022/07/18 07:22:50;;;;;;;3.40;2.35;;;18.70;1.00;;;;;;4979681;28;20378;-64
2022/07/18 07:25:18;;;;;;;1.77;1.60;;;18.90;1.00;;;;;;5006413;28;20340;-63
2022/07/18 07:27:45;;;;;;;5.75;1.80;;;19.60;1.00;;;;;;5007462;28;21087;-63
2022/07/18 07:30:14;;;;;;;5.07;1.85;;;19.00;1.00;;;;;;5010755;28;20232;-63
2022/07/18 07:32:42;;;;;;;3.65;1.95;;;19.10;1.00;;;;;;5014087;28;20205;-63
2022/07/18 07:35:12;;;;;;;2.20;1.63;;;19.20;1.00;;;;;;5008442;28;21036;-63
2022/07/18 07:37:39;;;;;;;3.72;1.77;;;19.40;99.90;;;;;;4980779;28;20217;-64
2022/07/18 07:40:09;;;;;;;1.60;1.42;;;19.50;8.60;;;;;;5009853;28;20348;-64
2022/07/18 07:42:36;;;;;;;2.00;1.50;;;19.50;1.00;;;;;;4982647;28;20221;-64
2022/07/18 07:45:03;;;;;;;5.47;1.52;;;19.50;1.00;;;;;;5014723;28;20225;-62
2022/07/18 07:47:30;;;;;;;3.42;1.70;;;17.80;1.00;;;;;;5008727;28;20201;-63
2022/07/18 07:49:57;;;;;;;5.00;1.50;;;19.70;99.90;;;;;;5015686;28;20331;-63
2022/07/18 07:52:24;;;;;;;2.42;1.50;;;19.80;1.00;;;;;;4993364;28;20601;-63
2022/07/18 07:54:52;;;;;;;3.70;1.50;;;19.80;99.90;;;;;;4984934;28;20229;-63
2022/07/18 07:57:20;;;;;;;3.85;1.67;;;19.80;99.90;;;;;;5017463;28;20221;-63
2022/07/18 07:59:47;;;;;;;2.92;1.60;;;20.00;1.00;;;;;;4992317;28;20210;-64
2022/07/18 08:02:16;;;;;;;3.20;1.70;;;20.00;1.00;;;;;;5042710;23;28508;-63
2022/07/18 08:04:43;;;;;;;2.15;1.58;;;17.70;1.00;;;;;;5032237;28;21113;-63
2022/07/18 08:07:11;;;;;;;4.57;1.45;;;20.10;1.00;;;;;;5027826;28;21125;-63
2022/07/18 08:09:38;;;;;;;5.75;1.67;;;20.10;1.00;;;;;;5040990;28;20219;-64
2022/07/18 08:12:06;;;;;;;2.40;1.65;;;20.10;1.00;;;;;;5025398;28;20201;-63
2022/07/18 08:14:37;;;;;;;3.75;1.25;;;20.00;99.90;;;;;;5022440;28;20624;-62
2022/07/18 08:17:04;;;;;;;3.05;1.65;;;20.20;99.90;;;;;;5043295;28;20542;-64
2022/07/18 08:19:31;;;;;;;4.03;1.58;;;21.10;1.00;;;;;;5053728;28;20189;-63
2022/07/18 08:21:59;;;;;;;3.53;1.25;;;18.80;1.00;;;;;;5035226;28;20935;-64
2022/07/18 08:24:25;;;;;;;3.35;1.88;;;20.30;1.00;;;;;;5042901;28;20714;-63
2022/07/18 08:26:53;;;;;;;2.72;1.50;;;;;;;;;;5039817;28;20219;-62
2022/07/18 08:29:21;;;;;;;2.83;1.60;;;20.40;1.00;;;;;;5034690;28;20196;-62
2022/07/18 08:31:50;;;;;;;3.22;1.63;;;20.40;1.00;;;;;;5060755;28;20848;-62
2022/07/18 08:34:16;;;;;;;2.78;1.40;;;20.40;99.90;;;;;;5050570;28;20228;-62
2022/07/18 08:36:43;;;;;;;7.45;1.60;;;20.50;99.90;;;;;;5057269;28;20219;-62
2022/07/18 08:39:10;;;;;;;2.22;1.50;;;20.50;1.00;;;;;;5023221;28;20209;-63
2022/07/18 08:41:40;;;;;;;2.05;1.58;;;20.50;1.00;;;;;;5042173;28;20228;-63
2022/07/18 08:44:09;;;;;;;2.20;1.50;;;20.70;1.00;;;;;;5045529;28;20212;-63
2022/07/18 08:46:39;;;;;;;2.63;1.40;;;20.70;1.00;;;;;;5058210;28;20215;-63
2022/07/18 08:49:08;;;;;;;2.47;1.20;;;21.00;99.90;;;;;;5049711;28;20201;-62
2022/07/18 08:51:37;;;;;;;5.28;1.83;;;21.00;99.90;;;;;;5045967;28;20252;-62
2022/07/18 08:54:04;;;;;;;2.22;1.58;;;21.00;3.60;;;;;;5027459;28;20262;-63
2022/07/18 08:56:33;;;;;;;4.18;1.50;;;21.00;1.00;;;;;;5051541;28;20341;-62
2022/07/18 08:59:03;;;;;;;3.63;1.58;;;21.10;1.00;;;;;;5032891;28;20204;-63
2022/07/18 09:01:30;;;;;;;2.15;1.50;;;21.30;1.00;;;;;;5042441;28;20224;-64
2022/07/18 09:06:47;;;;;;;34.65;3.10;;;19.50;1.00;;;;;;5045717;28;20207;-62
2022/07/18 09:09:16;;;;;;;6.05;2.22;;;21.20;1.00;;;;;;5012310;28;20204;-63
2022/07/18 09:12:00;;;;;;;2.60;1.35;;;21.40;1.00;;;;;;5052241;28;20201;-62
2022/07/18 09:14:35;;;;;;;3.25;1.48;;;21.50;1.00;;;;;;5025696;28;20257;-63
2022/07/18 09:17:04;;;;;;;4.10;1.88;;;21.60;1.00;;;;;;5054514;28;20663;-63
2022/07/18 09:19:31;;;;;;;4.07;1.67;;;21.50;1.00;;;;;;5055302;28;20211;-63
2022/07/18 09:22:15;;;;;;;1.75;1.60;;;21.60;1.00;;;;;;5024358;28;20603;-63
2022/07/18 09:25:01;;;;;;;4.18;2.05;;;21.70;1.00;;;;;;5024965;28;20866;-64
2022/07/18 09:27:37;;;;;;;1.95;1.65;;;21.80;1.00;;;;;;5054450;28;20209;-63
2022/07/18 09:30:16;;;;;;;2.35;1.90;;;21.80;1.00;;;;;;5039852;28;20224;-62
2022/07/18 09:32:45;;;;;;;3.85;1.80;;;21.80;1.00;;;;;;5034050;28;20266;-62
2022/07/18 09:35:13;;;;;;;3.95;2.00;;;21.50;1.00;;;;;;5045490;28;20227;-62
2022/07/18 09:37:41;;;;;;;6.20;1.90;;;21.80;99.90;;;;;;5050450;28;20282;-62
2022/07/18 09:40:16;;;;;;;2.60;1.67;;;21.70;1.00;;;;;;5032542;28;20204;-63
2022/07/18 09:42:43;;;;;;;7.05;2.28;;;22.10;99.90;;;;;;5054685;28;20564;-62
2022/07/18 09:45:10;;;;;;;3.17;2.10;;;21.90;1.00;;;;;;5037007;28;20224;-63
2022/07/18 09:47:51;;;;;;;2.75;1.90;;;22.00;99.90;;;;;;5058813;28;20574;-63
2022/07/18 09:50:27;;;;;;;4.97;2.05;;;22.10;1.00;;;;;;5043314;28;20208;-63
2022/07/18 09:53:01;;;;;;;2.47;2.03;;;22.50;1.00;;;;;;5050811;28;20208;-63
2022/07/18 09:55:29;;;;;;;3.88;2.28;;;22.10;99.90;;;;;;5045883;28;20239;-63
2022/07/18 09:58:05;;;;;;;5.75;2.40;;;22.40;99.90;;;;;;5030873;28;20201;-63
2022/07/18 10:00:34;;;;;;;6.38;3.13;;;22.20;99.90;;;;;;5040042;28;20279;-63
2022/07/18 10:03:02;;;;;;;10.07;2.58;;;22.20;99.90;;;;;;5047122;28;20228;-63
2022/07/18 10:05:30;;;;;;;8.07;2.88;;;22.50;99.90;;;;;;5058758;28;20201;-63
2022/07/18 10:08:00;;;;;;;4.53;2.70;;;22.40;99.90;;;;;;5023774;28;20219;-63
2022/07/18 10:10:29;;;;;;;4.40;3.00;;;22.40;99.90;;;;;;5054277;28;20196;-63
2022/07/18 10:12:58;;;;;;;4.05;2.50;;;21.80;99.90;;;;;;5020655;28;20232;-63
2022/07/18 10:15:27;;;;;;;4.13;3.05;;;22.50;99.90;;;;;;5056233;28;20302;-63
2022/07/18 10:17:54;;;;;;;3.10;2.17;;;22.60;99.90;;;;;;5049828;28;20204;-63
2022/07/18 10:20:28;;;;;;;3.33;2.10;;;22.70;99.90;;;;;;5040329;28;20220;-63
2022/07/18 10:22:57;;;;;;;5.68;2.75;;;22.70;99.90;;;;;;5039107;28;20201;-63
2022/07/18 10:25:26;;;;;;;4.80;2.63;;;22.80;99.90;;;;;;5047759;28;20899;-63
2022/07/18 10:27:55;;;;;;;4.75;2.53;;;23.00;99.90;;;;;;5037044;28;20777;-63
2022/07/18 10:30:34;;;;;;;3.45;2.75;;;23.00;99.90;;;;;;5050018;28;20204;-63
2022/07/18 10:33:01;;;;;;;4.70;2.92;;;23.10;99.90;;;;;;5041020;28;20208;-63
2022/07/18 10:35:59;;;;;;;5.30;2.92;;;23.00;99.90;;;;;;5044857;28;20230;-63
2022/07/18 10:38:26;;;;;;;7.28;3.33;;;23.10;99.90;;;;;;5044705;28;20188;-63
2022/07/18 10:41:09;;;;;;;5.45;2.80;;;23.10;99.90;;;;;;5056859;28;20551;-63
2022/07/18 10:43:46;;;;;;;5.85;3.20;;;23.20;99.90;;;;;;5025031;28;20208;-63
2022/07/18 10:46:14;;;;;;;4.75;3.10;;;23.30;99.90;;;;;;5048651;28;20204;-63
2022/07/18 10:48:52;;;;;;;4.78;2.72;;;23.30;99.40;;;;;;5041794;28;20220;-63
2022/07/18 10:51:19;;;;;;;4.35;3.00;;;23.30;99.90;;;;;;5032638;28;20220;-63
2022/07/18 10:54:13;;;;;;;7.60;3.10;;;23.50;99.90;;;;;;5054265;28;20203;-61
2022/07/18 10:57:10;;;;;;;6.95;2.85;;;23.50;99.90;;;;;;4995915;28;20208;-63
2022/07/18 11:00:07;;;;;;;4.07;3.05;;;23.80;99.90;;;;;;5029831;28;20227;-62
2022/07/18 11:02:36;;;;;;;6.65;2.97;;;23.70;31.60;;;;;;5040181;28;20237;-62
2022/07/18 11:05:04;;;;;;;3.80;3.15;;;23.70;54.50;;;;;;5045246;28;20212;-62
2022/07/18 11:07:31;;;;;;;5.10;2.80;;;;;;;;;;5043570;28;20212;-62
2022/07/18 11:09:58;;;;;;;3.40;2.70;;;23.70;25.50;;;;;;5064745;28;20200;-62
2022/07/18 11:12:30;;;;;;;4.93;3.28;;;20.20;43.40;;;;;;5047378;28;22465;-62
2022/07/18 11:15:15;;;;;;;6.32;2.85;;;23.90;17.90;;;;;;5045516;28;20236;-62
2022/07/18 11:18:02;;;;;;;6.70;3.50;;;23.90;21.60;;;;;;5024363;28;20212;-62
2022/07/18 11:20:40;;;;;;;5.45;3.13;;;24.10;15.30;;;;;;5050506;28;20200;-62
2022/07/18 11:23:16;;;;;;;4.43;3.50;;;24.30;1.00;;;;;;5040556;28;20966;-62
2022/07/18 11:25:43;;;;;;;4.57;2.90;;;24.40;1.00;;;;;;5052109;28;20207;-63
2022/07/18 11:28:13;;;;;;;3.53;3.00;;;24.40;1.00;;;;;;5042375;28;20888;-62
2022/07/18 11:30:40;;;;;;;6.72;3.13;;;24.60;1.00;;;;;;5055876;28;20886;-62
2022/07/18 11:33:21;;;;;;;4.18;2.70;;;24.50;1.00;;;;;;5028420;28;20203;-63
2022/07/18 11:35:47;;;;;;;3.17;2.38;;;24.50;1.00;;;;;;5044451;28;20232;-62
2022/07/18 11:38:14;;;;;;;4.97;2.78;;;24.70;1.00;;;;;;5052678;28;20207;-62
2022/07/18 11:40:50;;;;;;;7.20;2.80;;;24.70;1.00;;;;;;5046652;28;20204;-62
2022/07/18 11:43:25;;;;;;;4.47;3.08;;;24.70;1.00;;;;;;5037577;28;20243;-62
2022/07/18 11:46:06;;;;;;;9.57;3.10;;;24.70;1.00;;;;;;5052317;28;20277;-62
2022/07/18 11:48:34;;;;;;;8.23;3.30;;;24.80;1.00;;;;;;5021462;28;21149;-63
2022/07/18 11:51:02;;;;;;;7.43;3.00;;;24.60;1.00;;;;;;5049525;28;20592;-62
2022/07/18 11:53:29;;;;;;;6.88;2.80;;;24.70;1.00;;;;;;5033976;28;20227;-62
2022/07/18 11:55:57;;;;;;;4.45;2.83;;;24.80;1.00;;;;;;5059020;28;20216;-62
2022/07/18 11:58:25;;;;;;;5.97;2.97;;;24.80;1.00;;;;;;5054352;28;20207;-62
2022/07/18 12:00:59;;;;;;;2.97;2.47;;;24.80;1.00;;;;;;5037344;28;20758;-62
2022/07/18 12:03:27;;;;;;;5.70;3.38;;;24.90;1.00;;;;;;4992490;28;20322;-62
2022/07/18 12:05:54;;;;;;;3.88;2.95;;;25.00;1.00;;;;;;4993610;28;20560;-62
2022/07/18 12:08:34;;;;;;;6.13;3.25;;;25.10;1.00;;;;;;4995176;28;20215;-63
2022/07/18 12:11:06;;;;;;;7.35;2.97;;;25.20;1.00;;;;;;5010465;28;20224;-63
2022/07/18 12:13:46;;;;;;;3.42;2.72;;;25.20;1.00;;;;;;5001711;28;20233;-62
2022/07/18 12:16:29;;;;;;;4.45;3.25;;;25.30;1.00;;;;;;5020832;28;20233;-62
2022/07/18 12:18:58;;;;;;;4.80;2.90;;;25.40;1.00;;;;;;4977609;28;20219;-62
2022/07/18 12:21:25;;;;;;;3.40;2.70;;;25.40;1.00;;;;;;4985131;28;20213;-62
2022/07/18 12:23:54;;;;;;;3.38;2.53;;;25.20;1.00;;;;;;4989531;28;20703;-63
2022/07/18 12:26:28;;;;;;;7.43;3.80;;;;;;;;;;5011283;28;20316;-62
2022/07/18 12:29:07;;;;;;;6.18;3.17;;;25.10;1.00;;;;;;5004928;28;20256;-62
2022/07/18 12:31:37;;;;;;;4.90;3.95;;;25.10;1.00;;;;;;4986873;28;20985;-62
2022/07/18 12:34:12;;;;;;;12.70;4.00;;;25.10;1.00;;;;;;4982515;28;20205;-62
2022/07/18 12:36:53;;;;;;;8.32;3.47;;;24.60;1.00;;;;;;5000027;28;20228;-62
2022/07/18 12:39:28;;;;;;;4.15;3.08;;;25.10;1.00;;;;;;4995858;28;22054;-62
2022/07/18 12:41:55;;;;;;;3.65;2.90;;;25.20;1.00;;;;;;4999172;28;20225;-62
2022/07/18 12:44:24;;;;;;;5.32;2.78;;;25.10;1.00;;;;;;5000744;28;20209;-63
2022/07/18 12:46:51;;;;;;;6.03;3.03;;;25.00;1.00;;;;;;5005268;28;21121;-61
2022/07/18 12:49:17;;;;;;;4.85;2.72;;;25.00;1.00;;;;;;4991976;28;20216;-61
2022/07/18 12:51:45;;;;;;;5.55;3.58;;;25.30;1.00;;;;;;4987985;28;20233;-63
2022/07/18 12:54:11;;;;;;;3.88;2.95;;;25.00;1.00;;;;;;4997171;28;20715;-62
2022/07/18 12:56:38;;;;;;;7.60;3.03;;;26.00;1.00;;;;;;4995096;28;20229;-62
2022/07/18 12:59:05;;;;;;;3.28;2.75;;;25.40;1.00;;;;;;5019231;28;20213;-62
2022/07/18 13:01:34;;;;;;;9.32;4.03;;;25.50;1.00;;;;;;5014388;28;20258;-62
2022/07/18 13:04:00;;;;;;;4.20;3.70;;;25.50;1.00;;;;;;5031767;28;20212;-62
2022/07/18 13:06:27;;;;;;;5.05;3.65;;;25.80;1.00;;;;;;5058182;28;20195;-62
2022/07/18 13:08:54;;;;;;;4.53;3.60;;;25.90;1.00;;;;;;5015999;28;20204;-62
2022/07/18 13:11:21;;;;;;;12.63;3.75;;;25.90;1.00;;;;;;5056915;28;20582;-61
2022/07/18 13:13:48;;;;;;;6.85;2.97;;;25.70;1.00;;;;;;5058194;28;20211;-62